Time;durP1;ratioP1;P1;durP2;ratioP2;P2;SDS_P1;SDS_P2;PMS_P1;PMS_P2;Temp;Humidity;BMP_temperature;BMP_pressure;BME280_temperature;BME280_humidity;BME280_pressure;Samples;Min_cycle;Max_cycle;Signal;HPM_P1;HPM_P2
2021/09/23 00:00:07;;;;;;;37.95;23.52;;;10.10;94.20;;;;;;4999264;28;20496;-81
2021/09/23 00:05:11;;;;;;;44.83;25.30;;;10.20;97.60;;;;;;5038939;28;20343;-81
2021/09/23 00:07:37;;;;;;;48.97;26.75;;;10.30;96.90;;;;;;5023017;28;20504;-81
2021/09/23 00:10:03;;;;;;;38.38;24.40;;;10.30;97.60;;;;;;5003383;28;20373;-82
2021/09/23 00:12:28;;;;;;;43.42;26.38;;;10.10;97.00;;;;;;5020475;28;20033;-81
2021/09/23 00:14:54;;;;;;;42.53;23.70;;;10.10;98.20;;;;;;5008180;28;20029;-81
2021/09/23 00:17:19;;;;;;;32.97;20.05;;;10.10;97.00;;;;;;5010297;28;20025;-81
2021/09/23 00:19:45;;;;;;;44.30;25.60;;;10.30;96.00;;;;;;4996147;28;20029;-81
2021/09/23 00:22:10;;;;;;;48.38;24.95;;;10.30;94.90;;;;;;5010502;28;20407;-81
2021/09/23 00:24:36;;;;;;;44.17;24.52;;;10.20;96.80;;;;;;5020468;28;20510;-81
2021/09/23 00:27:02;;;;;;;40.47;21.25;;;10.10;97.60;;;;;;5002182;28;20115;-81
2021/09/23 00:29:28;;;;;;;39.05;21.45;;;10.10;94.90;;;;;;5031676;28;20037;-81
2021/09/23 00:31:53;;;;;;;47.88;26.65;;;10.10;95.00;;;;;;5022596;28;20500;-81
2021/09/23 00:34:19;;;;;;;45.22;24.88;;;10.00;96.00;;;;;;5004903;28;20086;-81
2021/09/23 00:36:44;;;;;;;49.90;25.50;;;9.90;97.60;;;;;;4992251;28;20063;-82
2021/09/23 00:39:10;;;;;;;46.60;25.85;;;9.80;99.00;;;;;;5011270;28;20026;-82
2021/09/23 00:41:35;;;;;;;29.17;17.60;;;10.00;97.90;;;;;;5024179;28;20566;-80
2021/09/23 00:44:14;;;;;;;43.53;23.70;;;10.20;96.20;;;;;;4996311;28;20033;-81
2021/09/23 00:46:40;;;;;;;38.28;24.92;;;10.20;96.50;;;;;;5003536;28;20071;-81
2021/09/23 00:49:06;;;;;;;38.90;23.27;;;10.10;97.70;;;;;;5013792;28;20039;-82
2021/09/23 00:51:32;;;;;;;34.47;22.30;;;10.00;97.50;;;;;;5039804;28;20452;-80
2021/09/23 00:53:57;;;;;;;39.17;22.00;;;10.00;96.20;;;;;;5014491;28;20021;-82
2021/09/23 00:56:23;;;;;;;36.33;19.25;;;10.10;96.60;;;;;;5032760;28;20033;-81
2021/09/23 00:58:48;;;;;;;32.70;19.15;;;10.10;96.20;;;;;;5031852;28;20405;-81
2021/09/23 01:01:15;;;;;;;29.85;18.25;;;10.20;96.10;;;;;;4999638;28;20033;-82
2021/09/23 01:03:41;;;;;;;30.98;18.42;;;10.20;95.70;;;;;;4992036;28;20032;-80
2021/09/23 01:06:06;;;;;;;37.97;20.95;;;10.20;95.60;;;;;;5012805;28;20035;-81
2021/09/23 01:08:32;;;;;;;31.60;17.45;;;10.20;95.90;;;;;;4996394;28;20033;-80
2021/09/23 01:10:57;;;;;;;29.85;18.42;;;10.30;95.70;;;;;;5007645;28;20025;-80
2021/09/23 01:13:24;;;;;;;35.33;21.27;;;10.20;95.80;;;;;;5021003;28;20477;-81
2021/09/23 01:15:49;;;;;;;36.30;21.10;;;10.10;96.50;;;;;;5018397;28;20543;-80
2021/09/23 01:18:15;;;;;;;37.47;22.10;;;10.00;98.00;;;;;;5013840;28;20124;-81
2021/09/23 01:20:45;;;;;;;35.38;21.67;;;9.90;98.70;;;;;;5024364;28;20028;-81
2021/09/23 01:23:11;;;;;;;38.17;22.73;;;9.80;99.70;;;;;;5010583;28;20068;-81
2021/09/23 01:25:36;;;;;;;46.05;22.80;;;9.70;99.50;;;;;;5019032;28;20493;-81
2021/09/23 01:28:02;;;;;;;37.30;23.48;;;9.70;99.90;;;;;;5001787;28;20561;-80
2021/09/23 01:30:27;;;;;;;38.58;21.60;;;9.70;99.90;;;;;;4998023;28;20033;-81
2021/09/23 01:32:53;;;;;;;36.90;22.42;;;9.80;98.70;;;;;;5010880;28;20036;-81
2021/09/23 01:35:19;;;;;;;36.88;21.92;;;9.90;99.00;;;;;;5025185;28;20025;-81
2021/09/23 01:37:45;;;;;;;26.50;15.45;;;10.00;97.60;;;;;;5038171;28;20035;-80
2021/09/23 01:40:11;;;;;;;22.10;14.93;;;10.10;96.60;;;;;;5030441;28;20557;-80
2021/09/23 01:42:37;;;;;;;23.33;14.55;;;10.10;96.20;;;;;;5004062;28;20113;-80
2021/09/23 01:45:04;;;;;;;27.05;16.48;;;10.20;96.50;;;;;;4990237;28;20050;-80
2021/09/23 01:47:29;;;;;;;29.73;18.42;;;10.30;96.10;;;;;;5018710;28;20029;-80
2021/09/23 01:49:55;;;;;;;26.58;15.48;;;10.30;97.30;;;;;;5023636;28;20434;-80
2021/09/23 01:52:20;;;;;;;24.90;16.05;;;10.20;96.20;;;;;;5001128;28;20389;-80
2021/09/23 01:54:48;;;;;;;28.35;18.80;;;10.30;96.20;;;;;;5009930;28;20033;-80
2021/09/23 01:57:15;;;;;;;32.28;19.45;;;10.30;97.90;;;;;;5018599;28;20028;-81
2021/09/23 01:59:40;;;;;;;33.08;20.25;;;10.20;98.50;;;;;;5021472;28;20029;-81
2021/09/23 02:02:06;;;;;;;27.92;18.15;;;10.20;98.00;;;;;;5021064;28;20500;-80
2021/09/23 02:04:31;;;;;;;28.30;16.85;;;10.20;97.60;;;;;;5018703;28;20036;-80
2021/09/23 02:06:57;;;;;;;22.33;15.13;;;10.30;97.20;;;;;;5027459;28;20033;-80
2021/09/23 02:09:22;;;;;;;22.75;15.27;;;10.50;96.80;;;;;;5020714;28;20036;-81
2021/09/23 02:11:48;;;;;;;24.65;17.02;;;10.50;97.10;;;;;;5026428;28;20400;-81
2021/09/23 02:14:14;;;;;;;19.77;13.75;;;10.40;97.10;;;;;;5031655;28;20092;-80
2021/09/23 02:16:39;;;;;;;22.55;14.90;;;10.50;97.20;;;;;;5020505;28;20033;-80
2021/09/23 02:19:05;;;;;;;23.67;15.40;;;10.40;97.30;;;;;;5030062;28;20108;-80
2021/09/23 02:21:30;;;;;;;25.55;16.48;;;10.40;98.20;;;;;;5021069;28;20114;-80
2021/09/23 02:23:56;;;;;;;20.60;14.38;;;10.30;98.30;;;;;;5015460;28;20036;-80
2021/09/23 02:26:21;;;;;;;24.67;15.68;;;10.40;97.40;;;;;;5027680;28;20477;-80
2021/09/23 02:28:47;;;;;;;23.63;16.48;;;10.40;97.90;;;;;;5008717;28;20024;-80
2021/09/23 02:31:12;;;;;;;29.88;18.17;;;10.30;97.80;;;;;;5011005;28;20026;-80
2021/09/23 02:33:38;;;;;;;27.30;18.77;;;10.20;99.60;;;;;;5030522;28;20052;-79
2021/09/23 02:36:04;;;;;;;33.00;17.98;;;10.10;97.80;;;;;;5025176;28;20025;-80
2021/09/23 02:38:29;;;;;;;31.20;18.40;;;9.90;98.20;;;;;;5005818;28;20052;-80
2021/09/23 02:40:55;;;;;;;30.40;17.77;;;9.90;99.10;;;;;;5039777;28;20028;-80
2021/09/23 02:43:21;;;;;;;22.00;15.40;;;9.90;99.90;;;;;;5027429;28;20033;-80
2021/09/23 02:45:47;;;;;;;26.52;16.10;;;10.10;99.00;;;;;;5016333;28;20485;-80
2021/09/23 02:48:13;;;;;;;28.88;17.02;;;10.10;97.60;;;;;;5021943;28;20435;-81
2021/09/23 02:50:39;;;;;;;25.08;15.57;;;10.20;99.30;;;;;;5009423;28;20029;-80
2021/09/23 02:53:04;;;;;;;24.42;16.50;;;10.10;99.50;;;;;;5024632;28;20036;-80
2021/09/23 02:55:34;;;;;;;22.50;15.13;;;10.10;99.90;;;;;;5020743;28;20060;-86
2021/09/23 02:58:00;;;;;;;19.33;12.93;;;10.10;98.70;;;;;;5027463;28;20104;-87
2021/09/23 03:00:25;;;;;;;16.83;10.70;;;10.20;97.80;;;;;;5021715;28;20496;-86
2021/09/23 03:02:51;;;;;;;18.42;11.68;;;10.40;96.40;;;;;;5016050;28;20097;-86
2021/09/23 03:05:17;;;;;;;16.73;10.50;;;10.50;97.00;;;;;;5023914;28;20041;-86
2021/09/23 03:07:42;;;;;;;18.63;11.77;;;10.50;96.80;;;;;;5012230;28;20404;-87
2021/09/23 03:10:08;;;;;;;17.77;10.15;;;10.50;97.40;;;;;;5027834;28;20507;-86
2021/09/23 03:12:34;;;;;;;17.33;10.98;;;10.60;95.90;;;;;;5000996;28;20246;-86
2021/09/23 03:14:59;;;;;;;18.98;11.70;;;10.50;96.90;;;;;;5024586;28;20496;-85
2021/09/23 03:17:25;;;;;;;26.23;14.55;;;10.40;98.50;;;;;;5007946;28;20038;-86
2021/09/23 03:19:52;;;;;;;21.98;14.07;;;10.30;99.70;;;;;;5016642;28;20112;-86
2021/09/23 03:22:19;;;;;;;22.40;11.25;;;10.20;99.60;;;;;;5012831;28;20033;-83
2021/09/23 03:24:45;;;;;;;18.98;13.25;;;10.20;98.10;;;;;;5025445;28;20037;-86
2021/09/23 03:27:11;;;;;;;19.55;12.30;;;10.50;97.70;;;;;;5031907;28;20039;-86
2021/09/23 03:29:36;;;;;;;14.05;10.18;;;10.40;97.90;;;;;;5025091;28;20036;-86
2021/09/23 03:32:02;;;;;;;18.30;10.77;;;10.50;96.70;;;;;;5001117;28;20064;-86
2021/09/23 03:34:28;;;;;;;13.43;9.02;;;10.60;96.90;;;;;;5028002;28;20032;-85
2021/09/23 03:36:53;;;;;;;10.07;7.28;;;10.70;96.70;;;;;;5047655;28;20037;-85
2021/09/23 03:39:19;;;;;;;16.13;9.20;;;10.70;97.10;;;;;;5017961;28;20108;-85
2021/09/23 03:41:44;;;;;;;13.25;9.05;;;10.70;96.90;;;;;;5023846;28;20077;-84
2021/09/23 03:44:10;;;;;;;14.32;8.70;;;10.80;96.70;;;;;;5031247;28;20036;-85
2021/09/23 03:46:35;;;;;;;15.10;8.30;;;11.00;96.60;;;;;;5017951;28;20043;-85
2021/09/23 03:49:01;;;;;;;12.40;8.20;;;11.00;96.70;;;;;;5031113;28;20037;-85
2021/09/23 03:51:26;;;;;;;17.55;9.27;;;11.00;96.90;;;;;;4999735;28;20072;-85
2021/09/23 03:53:52;;;;;;;14.55;9.52;;;11.10;96.90;;;;;;5027666;28;20574;-84
2021/09/23 03:56:18;;;;;;;14.77;10.10;;;11.10;97.40;;;;;;5019965;28;20432;-85
2021/09/23 03:58:43;;;;;;;15.80;9.50;;;11.10;96.80;;;;;;4990766;28;20063;-85
2021/09/23 04:01:10;;;;;;;17.40;9.05;;;11.10;97.00;;;;;;4999358;28;20029;-85
2021/09/23 04:03:36;;;;;;;15.82;10.35;;;11.20;97.10;;;;;;5013627;28;20037;-85
2021/09/23 04:06:02;;;;;;;19.77;9.65;;;11.20;96.70;;;;;;5022083;28;20033;-85
2021/09/23 04:08:27;;;;;;;18.98;11.02;;;11.30;97.00;;;;;;5005574;28;20033;-85
2021/09/23 04:10:53;;;;;;;18.00;10.57;;;11.20;96.70;;;;;;5033686;28;20032;-85
2021/09/23 04:13:19;;;;;;;17.00;9.85;;;11.20;96.70;;;;;;5022024;28;20049;-85
2021/09/23 04:15:46;;;;;;;13.90;8.50;;;11.20;97.00;;;;;;5008526;28;20029;-85
2021/09/23 04:18:15;;;;;;;18.30;9.77;;;11.20;97.10;;;;;;5009205;28;20029;-83
2021/09/23 04:20:41;;;;;;;17.83;10.55;;;11.20;97.30;;;;;;5029980;28;20033;-86
2021/09/23 04:23:07;;;;;;;14.43;8.00;;;11.30;97.10;;;;;;5027719;28;20078;-86
2021/09/23 04:25:32;;;;;;;16.42;10.18;;;11.30;97.30;;;;;;5017391;28;20261;-85
2021/09/23 04:27:58;;;;;;;16.08;9.57;;;11.40;97.40;;;;;;5014291;28;20112;-83
2021/09/23 04:30:23;;;;;;;14.90;7.38;;;11.40;97.30;;;;;;5001166;28;20440;-84
2021/09/23 04:32:49;;;;;;;17.52;9.25;;;11.30;97.40;;;;;;5032892;28;20037;-86
2021/09/23 04:35:14;;;;;;;14.23;9.32;;;11.30;97.40;;;;;;5004281;28;20044;-86
2021/09/23 04:37:40;;;;;;;24.52;10.60;;;11.40;97.70;;;;;;5016159;28;20112;-85
2021/09/23 04:40:06;;;;;;;14.25;9.88;;;11.40;97.40;;;;;;5019748;28;20022;-86
2021/09/23 04:42:32;;;;;;;13.35;10.18;;;11.30;97.40;;;;;;5014759;28;20037;-86
2021/09/23 04:44:57;;;;;;;13.75;8.90;;;11.30;97.60;;;;;;5023601;28;20036;-85
2021/09/23 04:47:23;;;;;;;14.52;8.55;;;11.20;97.20;;;;;;5028305;28;20035;-85
2021/09/23 04:49:49;;;;;;;15.57;10.18;;;11.30;97.30;;;;;;5034389;28;20059;-85
2021/09/23 04:52:14;;;;;;;15.57;8.48;;;11.30;97.10;;;;;;5034879;28;20043;-85
2021/09/23 04:54:40;;;;;;;13.88;8.55;;;11.30;97.40;;;;;;5038574;28;20076;-85
2021/09/23 04:57:05;;;;;;;11.90;8.32;;;11.30;97.30;;;;;;5005264;28;20029;-86
2021/09/23 04:59:31;;;;;;;11.05;6.90;;;11.30;97.30;;;;;;5018141;28;20522;-85
2021/09/23 05:01:56;;;;;;;12.90;9.20;;;11.30;97.50;;;;;;5042876;28;20123;-86
2021/09/23 05:04:22;;;;;;;21.92;9.38;;;11.40;97.30;;;;;;5019502;28;20044;-85
2021/09/23 05:06:48;;;;;;;13.18;5.85;;;11.20;97.20;;;;;;5030893;28;20078;-86
2021/09/23 05:09:13;;;;;;;15.10;8.57;;;11.30;97.40;;;;;;5023272;28;20057;-85
2021/09/23 05:11:39;;;;;;;13.20;8.38;;;11.30;97.40;;;;;;5019469;28;20044;-86
2021/09/23 05:14:04;;;;;;;15.20;8.75;;;11.30;97.00;;;;;;5003059;28;20028;-85
2021/09/23 05:16:30;;;;;;;13.50;7.95;;;11.40;97.20;;;;;;4993286;28;20030;-85
2021/09/23 05:18:56;;;;;;;11.65;7.32;;;11.40;97.20;;;;;;5035154;28;20136;-84
2021/09/23 05:21:21;;;;;;;11.65;8.57;;;11.40;97.40;;;;;;5021185;28;20896;-84
2021/09/23 05:23:47;;;;;;;14.68;10.18;;;11.30;97.20;;;;;;5017332;28;20035;-85
2021/09/23 05:26:12;;;;;;;17.35;10.60;;;11.40;97.30;;;;;;5009693;28;20462;-85
2021/09/23 05:28:38;;;;;;;15.77;9.88;;;11.20;98.10;;;;;;5007081;28;20477;-85
2021/09/23 05:31:04;;;;;;;11.13;7.22;;;11.20;97.70;;;;;;5007610;28;20053;-85
2021/09/23 05:33:30;;;;;;;13.63;7.68;;;11.20;97.70;;;;;;5004846;28;20041;-84
2021/09/23 05:35:55;;;;;;;11.50;7.85;;;11.30;97.20;;;;;;5017310;28;20021;-84
2021/09/23 05:38:23;;;;;;;11.63;7.32;;;11.40;97.50;;;;;;5025670;28;20033;-85
2021/09/23 05:40:48;;;;;;;10.23;5.85;;;11.40;97.20;;;;;;5019052;28;20057;-85
2021/09/23 05:43:14;;;;;;;11.63;7.60;;;11.40;97.40;;;;;;5018291;28;20558;-84
2021/09/23 05:45:40;;;;;;;12.80;8.00;;;11.40;97.70;;;;;;5002499;28;20112;-84
2021/09/23 05:48:05;;;;;;;13.45;8.05;;;11.40;97.60;;;;;;5023130;28;20037;-85
2021/09/23 05:50:31;;;;;;;12.75;8.15;;;11.40;97.30;;;;;;5004589;28;20047;-84
2021/09/23 05:52:56;;;;;;;7.22;4.75;;;11.50;97.40;;;;;;5013328;28;20591;-85
2021/09/23 05:55:22;;;;;;;12.15;7.85;;;11.50;97.40;;;;;;5021472;28;20476;-85
2021/09/23 05:57:48;;;;;;;16.48;8.07;;;11.50;97.30;;;;;;5028744;28;20040;-84
2021/09/23 06:00:15;;;;;;;9.10;5.65;;;11.50;97.40;;;;;;5002618;28;20025;-85
2021/09/23 06:02:41;;;;;;;14.35;7.97;;;11.60;97.50;;;;;;5006780;28;20045;-84
2021/09/23 06:05:07;;;;;;;16.65;8.40;;;11.60;97.30;;;;;;5019508;28;20064;-84
2021/09/23 06:07:41;;;;;;;13.50;8.65;;;11.60;97.40;;;;;;4994745;28;20867;-85
2021/09/23 06:10:08;;;;;;;11.35;7.55;;;11.70;97.20;;;;;;5010406;28;20030;-85
2021/09/23 06:12:34;;;;;;;16.38;7.15;;;11.70;97.40;;;;;;5002224;28;20037;-85
2021/09/23 06:15:01;;;;;;;14.65;8.85;;;11.80;97.40;;;;;;5002379;28;20432;-84
2021/09/23 06:17:26;;;;;;;12.98;8.52;;;11.80;97.30;;;;;;5018711;28;20124;-84
2021/09/23 06:19:52;;;;;;;10.18;7.15;;;11.80;97.20;;;;;;5020310;28;20626;-85
2021/09/23 06:22:17;;;;;;;12.60;8.15;;;11.80;97.20;;;;;;5028707;28;20039;-84
2021/09/23 06:24:43;;;;;;;14.02;8.27;;;11.80;97.50;;;;;;5005437;28;20458;-84
2021/09/23 06:27:09;;;;;;;11.68;6.65;;;11.90;97.30;;;;;;5007665;28;20080;-84
2021/09/23 06:29:34;;;;;;;10.43;7.50;;;11.90;97.40;;;;;;5023599;28;20173;-85
2021/09/23 06:32:00;;;;;;;13.95;8.43;;;12.00;97.30;;;;;;4999200;28;20040;-84
2021/09/23 06:34:25;;;;;;;12.07;6.75;;;12.10;97.20;;;;;;5015677;28;20493;-84
2021/09/23 06:36:51;;;;;;;11.90;8.07;;;12.20;97.10;;;;;;5039437;28;20039;-84
2021/09/23 06:39:17;;;;;;;9.85;6.88;;;12.20;97.10;;;;;;5013889;28;20104;-84
2021/09/23 06:41:43;;;;;;;6.18;4.28;;;12.20;97.00;;;;;;5003100;28;20036;-84
2021/09/23 06:44:09;;;;;;;6.57;3.92;;;12.30;97.00;;;;;;5022526;28;20040;-85
2021/09/23 06:46:35;;;;;;;12.50;4.90;;;12.30;96.90;;;;;;5006312;28;20036;-85
2021/09/23 06:49:00;;;;;;;10.57;6.25;;;12.50;96.80;;;;;;5010432;28;20025;-85
2021/09/23 06:51:26;;;;;;;7.75;5.50;;;12.50;96.40;;;;;;5008614;28;20392;-84
2021/09/23 06:53:51;;;;;;;11.23;6.85;;;12.60;96.60;;;;;;5039947;28;20014;-85
2021/09/23 06:56:17;;;;;;;8.88;5.57;;;12.60;96.70;;;;;;5001250;28;20048;-85
2021/09/23 06:58:44;;;;;;;11.35;6.55;;;12.70;96.60;;;;;;5016352;28;20028;-86
2021/09/23 07:01:09;;;;;;;11.07;7.53;;;12.70;96.40;;;;;;5001952;28;20113;-85
2021/09/23 07:03:35;;;;;;;13.88;8.73;;;12.90;96.30;;;;;;5030133;28;20475;-85
2021/09/23 07:06:00;;;;;;;12.68;6.38;;;12.90;96.20;;;;;;5027920;28;20433;-85
2021/09/23 07:08:28;;;;;;;14.82;8.68;;;13.00;96.10;;;;;;5026448;28;20499;-85
2021/09/23 07:10:53;;;;;;;9.95;6.18;;;13.10;96.10;;;;;;5038473;28;20029;-85
2021/09/23 07:13:19;;;;;;;6.13;4.57;;;13.10;95.90;;;;;;5041028;28;20520;-85
2021/09/23 07:15:45;;;;;;;13.32;7.28;;;13.40;95.50;;;;;;5041296;28;20033;-85
2021/09/23 07:18:10;;;;;;;15.52;7.22;;;13.40;95.50;;;;;;5005820;28;20037;-85
2021/09/23 07:20:36;;;;;;;6.72;4.32;;;13.50;95.30;;;;;;5023991;28;20036;-86
2021/09/23 07:23:01;;;;;;;12.43;6.93;;;13.40;95.50;;;;;;5018581;28;20036;-86
2021/09/23 07:25:27;;;;;;;12.23;4.60;;;13.50;95.60;;;;;;5027317;28;20032;-84
2021/09/23 07:27:53;;;;;;;12.48;6.20;;;13.50;95.60;;;;;;5038164;28;20059;-84
2021/09/23 07:30:19;;;;;;;11.02;7.18;;;13.50;95.50;;;;;;5003696;28;20032;-86
2021/09/23 07:32:45;;;;;;;14.05;7.75;;;13.80;95.10;;;;;;5023217;28;20029;-87
2021/09/23 07:35:10;;;;;;;10.65;6.75;;;13.80;95.40;;;;;;5013214;28;20481;-86
2021/09/23 07:37:36;;;;;;;11.15;5.60;;;13.90;95.20;;;;;;5004357;28;20065;-86
2021/09/23 07:40:04;;;;;;;11.35;7.57;;;14.00;95.00;;;;;;5013268;28;20012;-86
2021/09/23 07:42:29;;;;;;;16.08;7.90;;;14.00;95.00;;;;;;5000626;28;20064;-86
2021/09/23 07:44:56;;;;;;;8.38;4.55;;;14.30;94.60;;;;;;5020022;28;20048;-85
2021/09/23 07:47:21;;;;;;;13.60;8.57;;;14.60;94.10;;;;;;5015757;28;20087;-85
2021/09/23 07:49:47;;;;;;;12.20;6.95;;;14.40;94.30;;;;;;5022459;28;20025;-85
2021/09/23 07:52:12;;;;;;;10.77;6.03;;;14.40;94.50;;;;;;5017103;28;20163;-85
2021/09/23 07:54:38;;;;;;;11.45;6.68;;;14.40;94.90;;;;;;5028823;28;20056;-85
2021/09/23 07:57:04;;;;;;;13.13;7.53;;;14.60;94.60;;;;;;5006262;28;20477;-85
2021/09/23 07:59:32;;;;;;;13.23;9.30;;;14.70;94.50;;;;;;5007674;28;20037;-86
2021/09/23 08:01:57;;;;;;;11.55;7.07;;;14.80;94.40;;;;;;5045050;28;20047;-86
2021/09/23 08:04:23;;;;;;;11.48;7.20;;;15.00;94.40;;;;;;5025521;28;20484;-84
2021/09/23 08:06:48;;;;;;;15.95;7.75;;;15.10;94.50;;;;;;5006854;28;20040;-85
2021/09/23 08:09:14;;;;;;;14.00;7.55;;;15.40;93.50;;;;;;5044190;28;20029;-85
2021/09/23 08:11:40;;;;;;;16.10;8.63;;;15.50;93.50;;;;;;5007788;28;20033;-86
2021/09/23 08:14:06;;;;;;;11.02;7.00;;;15.60;93.20;;;;;;5018781;28;20036;-85
2021/09/23 08:16:32;;;;;;;12.07;5.82;;;15.70;92.90;;;;;;4996108;28;20119;-85
2021/09/23 08:18:57;;;;;;;12.13;8.45;;;15.90;92.30;;;;;;5006322;28;20041;-86
2021/09/23 08:21:23;;;;;;;12.98;7.80;;;15.90;92.50;;;;;;5026290;28;20090;-86
2021/09/23 08:23:51;;;;;;;19.23;7.78;;;16.00;92.40;;;;;;5037060;28;20036;-86
2021/09/23 08:26:16;;;;;;;9.00;6.63;;;16.00;92.50;;;;;;5002547;28;20041;-86
2021/09/23 08:28:42;;;;;;;11.00;7.65;;;16.20;92.20;;;;;;5019481;28;20480;-86
2021/09/23 08:31:09;;;;;;;12.95;7.00;;;16.30;92.40;;;;;;5016643;28;20108;-86
2021/09/23 08:33:35;;;;;;;12.95;6.20;;;16.40;92.00;;;;;;5011253;28;20060;-85
2021/09/23 08:36:01;;;;;;;9.73;6.13;;;16.40;91.70;;;;;;5027969;28;20037;-86
2021/09/23 08:38:27;;;;;;;12.38;7.63;;;16.60;91.60;;;;;;5004264;28;20097;-87
2021/09/23 08:40:53;;;;;;;11.38;7.13;;;16.70;91.40;;;;;;5035387;28;20029;-85
2021/09/23 08:43:19;;;;;;;10.75;6.53;;;16.90;91.30;;;;;;5017626;28;20074;-86
2021/09/23 08:45:45;;;;;;;12.90;6.88;;;17.00;91.50;;;;;;5037031;28;20024;-86
2021/09/23 08:48:11;;;;;;;12.60;8.23;;;16.90;91.20;;;;;;5001891;28;20451;-86
2021/09/23 08:50:38;;;;;;;10.73;5.82;;;17.30;90.90;;;;;;4995544;28;20037;-87
2021/09/23 08:53:04;;;;;;;9.00;5.97;;;17.30;91.00;;;;;;5002233;28;20036;-86
2021/09/23 08:55:30;;;;;;;11.25;6.40;;;17.40;91.00;;;;;;4997953;28;20040;-86
2021/09/23 08:57:58;;;;;;;14.07;7.53;;;17.40;91.20;;;;;;5019816;28;20020;-86
2021/09/23 09:00:23;;;;;;;6.28;4.15;;;17.60;90.90;;;;;;5007912;28;20433;-86
2021/09/23 09:03:03;;;;;;;9.70;6.32;;;18.00;90.00;;;;;;5020693;28;20474;-86
2021/09/23 09:05:29;;;;;;;6.95;4.30;;;18.00;90.00;;;;;;5023509;28;20111;-87
2021/09/23 09:08:02;;;;;;;6.20;4.63;;;17.90;89.90;;;;;;5021429;28;20036;-86
2021/09/23 09:10:28;;;;;;;6.50;4.15;;;18.10;88.70;;;;;;5026873;28;20030;-87
2021/09/23 09:12:53;;;;;;;6.18;4.05;;;18.00;89.60;;;;;;5015656;28;20124;-86
2021/09/23 09:15:31;;;;;;;9.95;5.82;;;18.00;89.20;;;;;;5033403;28;20028;-87
2021/09/23 09:17:56;;;;;;;10.63;6.15;;;18.20;88.80;;;;;;5016752;28;20040;-86
2021/09/23 09:20:22;;;;;;;9.20;5.28;;;18.40;88.50;;;;;;5023095;28;20029;-85
2021/09/23 09:22:47;;;;;;;8.77;4.50;;;18.40;88.40;;;;;;5034850;28;20025;-87
2021/09/23 09:25:13;;;;;;;7.45;3.90;;;18.70;87.00;;;;;;5004947;28;20028;-86
2021/09/23 09:27:43;;;;;;;7.93;4.93;;;18.90;86.30;;;;;;5030340;28;20128;-86
2021/09/23 09:30:14;;;;;;;15.45;4.78;;;19.20;84.90;;;;;;5002115;28;20025;-87
2021/09/23 09:32:47;;;;;;;5.50;3.97;;;19.20;84.50;;;;;;5012319;28;20036;-87
2021/09/23 09:35:18;;;;;;;6.80;4.88;;;19.30;83.90;;;;;;5012674;28;20116;-86
2021/09/23 09:37:50;;;;;;;7.78;3.80;;;19.10;84.80;;;;;;5003632;28;20029;-87
2021/09/23 09:40:23;;;;;;;9.07;5.25;;;19.10;85.00;;;;;;5014181;28;20456;-87
2021/09/23 09:42:51;;;;;;;7.13;3.63;;;19.20;85.20;;;;;;5022243;28;20032;-87
2021/09/23 09:45:26;;;;;;;7.13;4.57;;;19.20;85.50;;;;;;5001841;28;20044;-87
2021/09/23 09:47:54;;;;;;;6.18;5.13;;;19.20;85.40;;;;;;5006167;28;20089;-87
2021/09/23 09:50:32;;;;;;;5.30;3.63;;;19.40;85.00;;;;;;5009239;28;20497;-88
2021/09/23 09:53:09;;;;;;;9.88;5.25;;;19.50;85.00;;;;;;4987044;28;20030;-88
2021/09/23 09:55:40;;;;;;;6.85;4.43;;;19.70;85.00;;;;;;5005329;28;20515;-87
2021/09/23 09:58:06;;;;;;;5.45;4.13;;;20.20;84.20;;;;;;4998928;28;20078;-87
2021/09/23 10:00:32;;;;;;;4.88;3.17;;;20.10;83.90;;;;;;5018224;28;20037;-87
2021/09/23 10:02:58;;;;;;;8.48;4.47;;;20.20;83.10;;;;;;5035905;28;20040;-87
2021/09/23 10:05:24;;;;;;;5.35;3.55;;;20.60;82.40;;;;;;5019504;28;20075;-87
2021/09/23 10:07:54;;;;;;;7.35;3.40;;;20.60;82.20;;;;;;5036382;28;20025;-88
2021/09/23 10:10:21;;;;;;;5.00;2.63;;;20.40;82.20;;;;;;5032383;28;20051;-88
2021/09/23 10:12:47;;;;;;;4.68;4.13;;;20.90;81.30;;;;;;5023717;28;20086;-86
2021/09/23 10:15:14;;;;;;;7.88;4.68;;;21.00;79.50;;;;;;5027593;28;20032;-86
2021/09/23 10:17:48;;;;;;;8.98;4.28;;;21.00;80.00;;;;;;5005257;28;20091;-86
2021/09/23 10:20:15;;;;;;;8.50;4.30;;;21.20;78.90;;;;;;5032404;28;20035;-86
2021/09/23 10:22:41;;;;;;;10.55;5.07;;;21.00;79.10;;;;;;5017512;28;20037;-86
2021/09/23 10:25:09;;;;;;;4.82;3.17;;;21.20;78.80;;;;;;5011929;28;20041;-88
2021/09/23 10:30:20;;;;;;;4.72;3.60;;;21.20;79.00;;;;;;5036996;28;20569;-87
2021/09/23 10:32:45;;;;;;;5.97;3.90;;;21.20;78.50;;;;;;5035873;28;20123;-88
2021/09/23 10:35:16;;;;;;;3.85;2.65;;;21.20;78.10;;;;;;5012698;28;20068;-87
2021/09/23 10:37:41;;;;;;;9.27;4.18;;;21.20;78.20;;;;;;5025009;28;20045;-88
2021/09/23 10:40:09;;;;;;;4.85;3.67;;;21.20;77.70;;;;;;5020507;28;20090;-87
2021/09/23 10:42:35;;;;;;;4.35;2.75;;;21.20;78.00;;;;;;5037134;28;20839;-87
2021/09/23 10:45:00;;;;;;;9.85;4.15;;;21.10;77.90;;;;;;5000886;28;20036;-86
2021/09/23 10:47:32;;;;;;;7.75;4.43;;;21.30;76.80;;;;;;5009390;28;20033;-86
2021/09/23 10:49:58;;;;;;;4.05;3.42;;;21.30;77.40;;;;;;5037085;28;20032;-87
2021/09/23 10:52:25;;;;;;;7.47;4.95;;;21.20;77.80;;;;;;5021775;28;20040;-86
2021/09/23 10:54:54;;;;;;;5.43;4.65;;;20.90;79.50;;;;;;5027646;28;20029;-87
2021/09/23 10:57:20;;;;;;;8.10;5.20;;;21.40;77.40;;;;;;5015073;28;20029;-86
2021/09/23 10:59:49;;;;;;;8.68;4.40;;;21.40;77.40;;;;;;5042224;28;20048;-86
2021/09/23 11:02:25;;;;;;;8.68;3.63;;;21.60;77.00;;;;;;5036866;28;20064;-87
2021/09/23 11:04:53;;;;;;;7.22;4.32;;;21.70;76.70;;;;;;5029681;28;20033;-87
2021/09/23 11:07:19;;;;;;;9.68;5.40;;;21.70;77.00;;;;;;5013922;28;20033;-86
2021/09/23 11:10:10;;;;;;;6.35;4.78;;;21.70;76.10;;;;;;5005456;28;20025;-86
2021/09/23 11:12:36;;;;;;;10.60;5.03;;;21.30;78.20;;;;;;5023222;28;20116;-87
2021/09/23 11:15:03;;;;;;;7.57;3.78;;;21.50;77.40;;;;;;5013853;28;20128;-86
2021/09/23 11:17:29;;;;;;;5.50;3.08;;;22.00;76.30;;;;;;5002699;28;20037;-87
2021/09/23 11:20:07;;;;;;;7.55;4.45;;;22.20;75.80;;;;;;5020288;28;20404;-86
2021/09/23 11:22:43;;;;;;;7.63;4.60;;;22.60;75.60;;;;;;5023333;28;20037;-86
2021/09/23 11:25:13;;;;;;;6.68;5.03;;;22.50;75.30;;;;;;5016838;28;20393;-86
2021/09/23 11:27:40;;;;;;;6.47;4.50;;;22.40;75.10;;;;;;5004226;28;20045;-87
2021/09/23 11:30:09;;;;;;;7.90;3.35;;;22.50;75.00;;;;;;5002410;28;20033;-87
2021/09/23 11:32:55;;;;;;;6.88;3.55;;;23.00;73.30;;;;;;5026377;28;20037;-86
2021/09/23 11:35:24;;;;;;;5.93;2.88;;;22.80;73.00;;;;;;5019353;28;20037;-87
2021/09/23 11:37:50;;;;;;;6.60;4.25;;;23.00;73.30;;;;;;5027700;28;20028;-87
2021/09/23 11:40:24;;;;;;;7.70;4.70;;;23.00;73.00;;;;;;5013619;28;20303;-89
2021/09/23 11:42:49;;;;;;;6.03;4.35;;;23.10;71.80;;;;;;5007839;28;20037;-89
2021/09/23 11:45:17;;;;;;;8.23;5.13;;;23.20;72.10;;;;;;5018415;28;20039;-89
2021/09/23 11:47:51;;;;;;;6.63;3.78;;;23.20;72.40;;;;;;5009783;28;20041;-88
2021/09/23 11:50:41;;;;;;;7.00;3.35;;;23.30;71.70;;;;;;5037734;28;20580;-89
2021/09/23 11:53:30;;;;;;;5.85;4.47;;;23.40;71.70;;;;;;5060888;28;20044;-88
2021/09/23 11:56:00;;;;;;;6.22;4.00;;;23.40;71.80;;;;;;5006797;28;20049;-89
2021/09/23 11:58:26;;;;;;;8.27;3.72;;;23.50;72.40;;;;;;5033618;28;20059;-89
2021/09/23 12:00:52;;;;;;;9.32;4.82;;;23.40;72.80;;;;;;5029919;28;20034;-89
2021/09/23 12:03:18;;;;;;;5.93;3.90;;;23.60;71.90;;;;;;5043950;28;20048;-89
2021/09/23 12:05:45;;;;;;;6.35;3.22;;;23.20;73.60;;;;;;5044921;28;20125;-88
2021/09/23 12:08:12;;;;;;;11.23;4.63;;;23.40;73.20;;;;;;5036628;28;20079;-89
2021/09/23 12:10:57;;;;;;;7.72;4.60;;;22.90;74.80;;;;;;5009592;28;20045;-89
2021/09/23 12:15:57;;;;;;;6.25;3.88;;;23.70;73.20;;;;;;5026194;28;20051;-89
2021/09/23 12:18:23;;;;;;;7.55;5.80;;;23.80;73.30;;;;;;5008881;28;20217;-89
2021/09/23 12:21:09;;;;;;;5.10;3.15;;;23.90;72.30;;;;;;4999093;28;20439;-86
2021/09/23 12:23:36;;;;;;;;;;;23.80;73.40;;;;;;5009807;28;20504;-86
2021/09/23 12:26:23;;;;;;;9.02;3.85;;;24.20;72.30;;;;;;5010082;28;19963;-86
2021/09/23 12:29:13;;;;;;;6.35;4.20;;;24.30;71.60;;;;;;5010384;28;20106;-86
2021/09/23 12:31:39;;;;;;;5.15;3.42;;;24.10;72.20;;;;;;5009745;28;20119;-86
2021/09/23 12:34:20;;;;;;;6.97;4.28;;;24.30;71.90;;;;;;5027736;28;20116;-86
2021/09/23 12:36:47;;;;;;;13.38;5.03;;;24.20;72.30;;;;;;4993917;28;20124;-87
2021/09/23 12:39:19;;;;;;;11.98;4.97;;;23.90;73.30;;;;;;4998447;28;20540;-87
2021/09/23 12:42:10;;;;;;;8.73;5.95;;;24.00;73.70;;;;;;5008082;28;20037;-85
2021/09/23 12:45:00;;;;;;;7.45;5.10;;;24.10;72.90;;;;;;5038100;28;20040;-86